• Join FlightAware (Why Join?)
  • Login
  • US Flag 
12:31AM EDT


 

Airport Tracker/Info


-or-


 

Live Flight TrackerFlight Track Log ✈ SWA1903 ✈ 15-May-2013 ✈ KDTW - KPHX

Flight Track Log - Related Links

Times and Time Zones

All times are in EDT time to prevent confusion due to time zone crossing. See the SWA1903 flight status page for this flight to view local times or setup timezone preferences in your user account.

Time Position Orientation Groundspeed Altitude Reporting Facility
EDT Latitude Longitude Course Direction KTS MPH feet Rate Location/Type
09:51AM 42.1972 -83.3608 226° Southwest 174 200 1,300  Level Cleveland Center
09:52AM 42.1564 -83.4178 226° Southwest 213 245 4,000 2,400 Climbing Cleveland Center
09:53AM 42.1358 -83.4842 247° West 217 250 6,400 2,520 Climbing Cleveland Center
09:54AM 42.1675 -83.5500 303° West 256 295 9,000 2,400 Climbing Cleveland Center
09:55AM 42.1989 -83.6300 298° West 256 295 11,100 2,040 Climbing Cleveland Center
09:56AM 42.2397 -83.7331 298° West 286 329 13,100 2,460 Climbing Cleveland Center
09:57AM 42.2867 -83.8447 300° West 314 361 16,100 2,940 Climbing Cleveland Center
09:58AM 42.3314 -83.9594 298° West 332 382 19,000 2,520 Climbing Cleveland Center
09:59AM 42.3800 -84.0800 299° West 351 404 21,200 1,800 Climbing Cleveland Center
10:01AM 42.4311 -84.3308 286° West 390 449 24,300 1,680 Climbing Chicago Center
10:02AM 42.4347 -84.4803 272° West 398 458 26,100 1,680 Climbing Chicago Center
10:03AM 42.4389 -84.6333 272° West 407 468 27,800 1,920 Climbing Chicago Center
10:04AM 42.4425 -84.8206 272° West 414 476 30,100 1,920 Climbing Chicago Center
10:05AM 42.4472 -84.9717 272° West 405 466 31,800 1,200 Climbing Chicago Center
10:06AM 42.4497 -85.1264 271° West 409 471 32,600 1,140 Climbing Chicago Center
10:07AM 42.4528 -85.2783 272° West 408 470 34,200 1,440 Climbing Chicago Center
10:08AM 42.4553 -85.4278 271° West 402 463 35,600 1,140 Climbing Chicago Center
10:09AM 42.4583 -85.5778 272° West 398 458 36,600 960 Climbing Chicago Center
10:10AM 42.4608 -85.7267 271° West 397 457 37,700 660 Climbing Chicago Center
10:11AM 42.4631 -85.9083 271° West 401 461 38,000 120 Climbing Chicago Center
10:12AM 42.4650 -86.0569 271° West 396 456 38,000  Level Chicago Center
10:13AM 42.4528 -86.2069 264° West 399 459 38,000  Level Chicago Center
10:14AM 42.4344 -86.3539 260° West 398 458 38,000  Level Chicago Center
10:15AM 42.4156 -86.5019 260° West 399 459 38,000  Level Chicago Center
10:16AM 42.3964 -86.6486 260° West 397 457 38,000  Level Chicago Center
10:17AM 42.3772 -86.8242 262° West 394 453 38,000  Level Chicago Center
10:18AM 42.3572 -86.9686 259° West 394 453 38,000  Level Chicago Center
10:20AM 42.3364 -87.1111 259° West 390 449 38,000  Level Chicago Center
10:21AM 42.3175 -87.2561 260° West 394 453 38,000  Level Chicago Center
10:22AM 42.2981 -87.3989 260° West 391 450 38,000  Level Chicago Center
10:23AM 42.2742 -87.5747 260° West 399 459 38,000  Level Chicago Center
10:24AM 42.2542 -87.7186 259° West 395 455 38,000  Level Chicago Center
10:25AM 42.2336 -87.8636 259° West 396 456 38,000  Level Chicago Center
10:26AM 42.2111 -88.0092 258° West 399 459 38,000  Level Chicago Center
10:27AM 42.1803 -88.1836 257° West 402 463 38,000  Level Chicago Center
10:28AM 42.1553 -88.3267 257° West 399 459 38,000  Level Chicago Center
10:29AM 42.1244 -88.4706 254° West 402 463 38,000  Level Chicago Center
10:30AM 42.0919 -88.6106 253° West 398 458 38,000  Level Chicago Center
10:31AM 42.0592 -88.7539 253° West 403 464 38,000  Level Chicago Center
10:32AM 42.0192 -88.9269 253° West 407 468 38,000  Level Chicago Center
10:33AM 41.9850 -89.0706 252° West 408 470 38,000  Level Chicago Center
10:34AM 41.9514 -89.2128 252° West 406 467 38,000  Level Chicago Center
10:35AM 41.9181 -89.3581 253° West 409 471 38,000  Level Chicago Center
10:36AM 41.8833 -89.5008 252° West 408 470 38,000  Level Chicago Center
10:37AM 41.8419 -89.6722 252° West 407 468 38,000  Level Chicago Center
10:38AM 41.8069 -89.8158 252° West 409 471 38,000  Level Chicago Center
10:39AM 41.7778 -89.9456 253° West 410 472 38,000  Level Chicago Center
10:40AM 41.7353 -90.1178 252° West 409 471 38,000  Level Chicago Center
10:41AM 41.6997 -90.2614 252° West 409 471 38,000  Level Chicago Center
10:42AM 41.6619 -90.4111 251° West 421 484 38,000  Level Chicago Center
10:43AM 41.6258 -90.5556 252° West 413 475 38,000  Level Chicago Center
10:44AM 41.5875 -90.7081 251° West 413 475 38,000  Level Chicago Center
10:45AM 41.5508 -90.8539 251° West 416 479 38,000  Level Chicago Center
10:46AM 41.5086 -91.0211 251° West 417 480 38,000  Level Chicago Center
10:47AM 41.4711 -91.1667 251° West 416 479 38,000  Level Chicago Center
10:48AM 41.4328 -91.3136 251° West 420 483 38,000  Level Chicago Center
10:50AM 41.3936 -91.4672 251° West 422 486 38,000  Level Chicago Center
10:51AM 41.3558 -91.6136 251° West 422 486 38,000  Level Chicago Center
10:52AM 41.3172 -91.7597 251° West 421 484 38,000  Level Chicago Center
10:53AM 41.2708 -91.9344 251° West 421 484 38,000  Level Chicago Center
10:54AM 41.2294 -92.0858 250° West 421 484 38,000  Level Chicago Center
10:55AM 41.1914 -92.2314 251° West 422 486 38,000  Level Chicago Center
10:56AM 41.1517 -92.3756 250° West 421 484 38,000  Level Chicago Center
10:57AM 41.1128 -92.5222 251° West 425 489 38,000  Level Chicago Center
10:58AM 41.0653 -92.6939 250° West 421 484 38,000  Level Chicago Center
10:59AM 41.0264 -92.8397 251° West 422 486 38,000  Level Chicago Center
10:59AM 41.0103 -92.8983 250° West 423 487 38,000  Level Minneapolis Center
11:00AM 40.9703 -93.0433 250° West 425 489 38,000  Level Minneapolis Center
11:01AM 40.9297 -93.1867 250° West 423 487 38,000  Level Minneapolis Center
11:02AM 40.8822 -93.3586 250° West 421 484 38,000  Level Minneapolis Center
11:03AM 40.8411 -93.5033 249° West 425 489 38,000  Level Minneapolis Center
11:04AM 40.7994 -93.6503 250° West 429 494 38,000  Level Minneapolis Center
11:06AM 40.7572 -93.7978 249° West 433 498 38,000  Level Minneapolis Center
11:07AM 40.7061 -93.9739 249° West 432 497 38,000  Level Minneapolis Center
11:08AM 40.6619 -94.1211 248° West 435 501 38,000  Level Minneapolis Center
11:09AM 40.6200 -94.2692 250° West 436 502 38,000  Level Minneapolis Center
11:10AM 40.5792 -94.4156 250° West 434 499 38,000  Level Minneapolis Center
11:11AM 40.5333 -94.5644 248° West 433 498 38,000  Level Minneapolis Center
11:12AM 40.4808 -94.7414 249° West 432 497 38,000  Level Minneapolis Center
11:13AM 40.4372 -94.8900 249° West 434 499 38,000  Level Minneapolis Center
11:14AM 40.3936 -95.0389 249° West 436 502 38,000  Level Minneapolis Center
11:15AM 40.3486 -95.1872 248° West 436 502 38,000  Level Minneapolis Center
11:16AM 40.3047 -95.3358 249° West 436 502 38,000  Level Minneapolis Center
11:17AM 40.2597 -95.4850 248° West 438 504 38,000  Level Minneapolis Center
11:18AM 40.2142 -95.6325 248° West 437 503 38,000  Level Minneapolis Center
11:19AM 40.1592 -95.8114 248° West 439 505 38,000  Level Minneapolis Center
11:20AM 40.1136 -95.9594 248° West 439 505 38,000  Level Minneapolis Center
11:21AM 40.0683 -96.1072 248° West 437 503 38,000  Level Minneapolis Center
11:22AM 40.0217 -96.2547 248° West 439 505 38,000  Level Minneapolis Center
11:23AM 39.9747 -96.4039 248° West 442 509 38,000  Level Minneapolis Center
11:24AM 39.9278 -96.5544 248° West 445 512 38,000  Level Minneapolis Center
11:25AM 39.8806 -96.7022 247° West 444 511 38,000  Level Minneapolis Center
11:26AM 39.8236 -96.8794 247° West 442 509 38,000  Level Minneapolis Center
11:27AM 39.7764 -97.0283 248° West 443 510 38,000  Level Minneapolis Center
11:28AM 39.7286 -97.1747 247° West 441 507 38,000  Level Minneapolis Center
11:29AM 39.6811 -97.3211 247° West 441 507 38,000  Level Minneapolis Center
11:30AM 39.6328 -97.4681 247° West 441 507 38,000  Level Minneapolis Center
11:31AM 39.5786 -97.6347 247° West 444 511 38,000  Level Kansas City Center
11:32AM 39.5314 -97.7797 247° West 441 507 38,000  Level Kansas City Center
11:33AM 39.4817 -97.9250 246° West 450 518 38,000  Level Kansas City Center
11:34AM 39.4267 -98.0903 247° West 449 517 38,000  Level Kansas City Center
11:35AM 39.3822 -98.2258 247° West 447 514 38,000  Level Kansas City Center
11:37AM 39.3219 -98.4028 246° West 450 518 38,000  Level Denver Center
11:38AM 39.2725 -98.5508 247° West 449 517 38,000  Level Denver Center
11:39AM 39.2219 -98.7003 246° West 451 519 38,000  Level Denver Center
11:40AM 39.1711 -98.8475 246° West 450 518 38,000  Level Denver Center
11:41AM 39.1192 -98.9992 246° West 454 522 38,000  Level Denver Center
11:42AM 39.0614 -99.1628 246° West 451 519 38,000  Level Denver Center
11:43AM 39.0122 -99.3058 246° West 456 525 38,000  Level Denver Center
11:44AM 38.9550 -99.4714 246° West 454 522 38,000  Level Denver Center
11:45AM 38.9050 -99.6133 246° West 456 525 38,000  Level Denver Center
11:46AM 38.8469 -99.7767 246° West 452 520 38,000  Level Denver Center
11:47AM 38.7981 -99.9169 246° West 453 521 38,000  Level Denver Center
11:48AM 38.7389 -100.0764 245° Southwest 446 513 38,000  Level Denver Center
11:49AM 38.6889 -100.2164 245° Southwest 452 520 38,000  Level Denver Center
11:50AM 38.6300 -100.3789 245° Southwest 450 518 38,000  Level Denver Center
11:51AM 38.5792 -100.5197 245° Southwest 455 524 38,000  Level Denver Center
11:52AM 38.5200 -100.6825 245° Southwest 455 524 38,000  Level Denver Center
11:53AM 38.4692 -100.8217 245° Southwest 455 524 38,000  Level Denver Center
11:54AM 38.4094 -100.9842 245° Southwest 455 524 38,000  Level Denver Center
11:55AM 38.3583 -101.1214 245° Southwest 452 520 38,000  Level Denver Center
11:56AM 38.2983 -101.2825 245° Southwest 452 520 38,000  Level Denver Center
11:57AM 38.2475 -101.4208 245° Southwest 452 520 38,000  Level Denver Center
11:58AM 38.1872 -101.5806 244° Southwest 451 519 38,000  Level Denver Center
11:59AM 38.1361 -101.7178 245° Southwest 450 518 38,000  Level Denver Center
12:00PM 38.0747 -101.8764 244° Southwest 451 519 38,000  Level Denver Center
12:01PM 38.0222 -102.0131 244° Southwest 453 521 38,000  Level Denver Center
12:02PM 37.9606 -102.1750 244° Southwest 458 527 38,000  Level Denver Center
12:03PM 37.9078 -102.3125 244° Southwest 455 524 38,000  Level Denver Center
12:04PM 37.8450 -102.4736 244° Southwest 458 527 38,000  Level Denver Center
12:06PM 37.7872 -102.6228 244° Southwest 460 529 38,000  Level Denver Center
12:07PM 37.7328 -102.7603 243° Southwest 459 528 38,000  Level Denver Center
12:08PM 37.6694 -102.9217 244° Southwest 458 527 38,000  Level Denver Center
12:09PM 37.6153 -103.0606 244° Southwest 458 527 38,000  Level Denver Center
12:10PM 37.5517 -103.2217 244° Southwest 459 528 38,000  Level Denver Center
12:11PM 37.4967 -103.3608 244° Southwest 462 532 38,000  Level Denver Center
12:12PM 37.4417 -103.4992 243° Southwest 460 529 38,000  Level Denver Center
12:13PM 37.3767 -103.6586 243° Southwest 457 526 38,000  Level Denver Center
12:14PM 37.3208 -103.7956 243° Southwest 455 524 38,000  Level Denver Center
12:15PM 37.2564 -103.9550 243° Southwest 454 522 38,000  Level Denver Center
12:16PM 37.2011 -104.0911 243° Southwest 453 521 38,000  Level Denver Center
12:17PM 37.1367 -104.2478 243° Southwest 452 520 38,000  Level Denver Center
12:18PM 37.0911 -104.3592 243° Southwest 451 519 38,000  Level Albuquerque Center
12:19PM 37.0372 -104.4942 243° Southwest 451 519 38,000  Level Albuquerque Center
12:20PM 36.9711 -104.6494 242° Southwest 452 520 38,000  Level Albuquerque Center
12:21PM 36.9158 -104.7836 243° Southwest 453 521 38,000  Level Albuquerque Center
12:22PM 36.8594 -104.9158 242° Southwest 452 520 38,000  Level Albuquerque Center
12:23PM 36.7953 -105.0694 242° Southwest 449 517 38,000  Level Albuquerque Center
12:24PM 36.7397 -105.2022 242° Southwest 449 517 38,000  Level Albuquerque Center
12:25PM 36.6656 -105.3794 242° Southwest 447 514 38,000  Level Denver Center
12:26PM 36.6197 -105.4861 242° Southwest 447 514 38,000  Level Albuquerque Center
12:27PM 36.5564 -105.6317 242° Southwest 449 517 38,000  Level Albuquerque Center
12:28PM 36.4969 -105.7667 241° Southwest 447 514 38,000  Level Albuquerque Center
12:29PM 36.4353 -105.9156 243° Southwest 453 521 38,000  Level Albuquerque Center
12:30PM 36.3817 -106.0433 243° Southwest 451 519 38,000  Level Albuquerque Center
12:31PM 36.3136 -106.1986 241° Southwest 447 514 38,000  Level Albuquerque Center
12:32PM 36.2561 -106.3286 241° Southwest 449 517 38,000  Level Albuquerque Center
12:33PM 36.1889 -106.4806 241° Southwest 450 518 38,000  Level Albuquerque Center
12:34PM 36.1314 -106.6117 242° Southwest 449 517 38,000  Level Albuquerque Center
12:35PM 36.0717 -106.7483 242° Southwest 451 519 38,000  Level Albuquerque Center
12:36PM 36.0119 -106.8814 241° Southwest 449 517 38,000 -300 Level Albuquerque Center
12:37PM 35.9536 -107.0128 241° Southwest 443 510 37,500 -780 Descending Albuquerque Center
12:38PM 35.8850 -107.1656 241° Southwest 440 506 36,400 -780 Descending Albuquerque Center
12:39PM 35.8183 -107.3164 241° Southwest 445 512 36,000 -240 Descending Albuquerque Center
12:40PM 35.7611 -107.4431 241° Southwest 444 511 36,000 -240 Level Albuquerque Center
12:41PM 35.7050 -107.5711 242° Southwest 443 510 35,500 -780 Descending Albuquerque Center
12:43PM 35.6436 -107.7211 243° Southwest 440 506 34,400 -780 Descending Albuquerque Center
12:44PM 35.5886 -107.8500 242° Southwest 441 507 34,000 -240 Descending Albuquerque Center
12:45PM 35.5250 -108.0000 243° Southwest 443 510 34,000  Level Albuquerque Center
12:46PM 35.4703 -108.1267 242° Southwest 440 506 34,000  Level Albuquerque Center
12:47PM 35.4058 -108.2761 242° Southwest 440 506 34,000  Level Albuquerque Center
12:48PM 35.3511 -108.4042 242° Southwest 442 509 34,000  Level Albuquerque Center
12:49PM 35.2858 -108.5539 242° Southwest 444 511 34,000  Level Albuquerque Center
12:50PM 35.2306 -108.6806 242° Southwest 442 509 34,000  Level Albuquerque Center
12:51PM 35.1758 -108.8075 242° Southwest 439 505 34,000  Level Albuquerque Center
12:52PM 35.1117 -108.9550 242° Southwest 438 504 34,000  Level Albuquerque Center
12:53PM 35.0567 -109.0786 242° Southwest 436 502 34,000  Level Albuquerque Center
12:54PM 34.9925 -109.2228 242° Southwest 432 497 34,000  Level Albuquerque Center
12:55PM 34.9381 -109.3456 242° Southwest 429 494 34,000  Level Albuquerque Center
12:56PM 34.8744 -109.4864 241° Southwest 425 489 34,000  Level Albuquerque Center
12:57PM 34.8208 -109.6042 241° Southwest 418 481 34,000  Level Albuquerque Center
12:58PM 34.7564 -109.7461 241° Southwest 424 488 34,000  Level Albuquerque Center
12:59PM 34.7031 -109.8675 242° Southwest 425 489 34,000  Level Albuquerque Center
01:00PM 34.6494 -110.0158 246° West 426 490 34,000  Level Albuquerque Center
01:01PM 34.6039 -110.1442 247° West 434 499 34,000  Level Albuquerque Center
01:02PM 34.5500 -110.2936 246° West 433 498 34,000 -480 Level Albuquerque Center
01:03PM 34.4992 -110.4186 244° Southwest 425 489 33,100 -1,020 Descending Albuquerque Center
01:04PM 34.4536 -110.5514 247° West 428 493 32,000 -1,620 Descending Albuquerque Center
01:05PM 34.4036 -110.6800 245° Southwest 424 488 29,800 -2,100 Descending Albuquerque Center
01:06PM 34.3503 -110.8017 242° Southwest 417 480 27,700 -2,040 Descending Albuquerque Center
01:07PM 34.2744 -110.8983 227° Southwest 399 459 25,700 -1,980 Descending Albuquerque Center
01:08PM 34.2022 -110.9908 227° Southwest 385 443 23,700 -2,100 Descending Albuquerque Center
01:09PM 34.1197 -111.1003 228° Southwest 372 428 21,400 -2,040 Descending Albuquerque Center
01:10PM 34.0525 -111.1856 226° Southwest 359 413 19,600 -1,800 Descending Albuquerque Center
01:11PM 33.9883 -111.2686 227° Southwest 344 396 17,800 -1,800 Descending Albuquerque Center
01:12PM 33.9253 -111.3492 227° Southwest 331 381 16,000 -1,380 Descending Albuquerque Center
01:14PM 33.8678 -111.4281 229° Southwest 313 360 15,000 -1,260 Descending Albuquerque Center
01:15PM 33.8264 -111.5106 239° Southwest 288 331 13,500 -1,440 Descending Albuquerque Center
01:16PM 33.7844 -111.5889 237° Southwest 279 321 12,100 -1,560 Descending Albuquerque Center
01:17PM 33.7369 -111.6797 238° Southwest 267 307 10,300 -1,020 Descending Albuquerque Center
01:18PM 33.6992 -111.7500 237° Southwest 249 287 10,000 -180 Descending Albuquerque Center
01:19PM 33.6650 -111.8114 236° Southwest 223 257 10,000 -120 Level Albuquerque Center
01:20PM 33.6306 -111.8731 236° Southwest 223 257 9,800 -540 Descending Albuquerque Center
01:21PM 33.5978 -111.9342 237° Southwest 219 252 9,000 -780 Descending Albuquerque Center
01:22PM 33.5653 -111.9961 238° Southwest 219 252 8,300 -960 Descending Albuquerque Center
01:23PM 33.5331 -112.0572 238° Southwest 217 250 7,100 -1,020 Descending Albuquerque Center
01:24PM 33.5253 -112.1431 264° West 221 254 6,200 -960 Descending Albuquerque Center
01:25PM 33.5186 -112.2169 264° West 223 257 5,100 -1,020 Descending Albuquerque Center
01:26PM 33.4603 -112.2278 189° South 213 245 4,100 -960 Descending Albuquerque Center
01:27PM 33.4292 -112.1875 133° Southeast 194 223 3,200 -720 Descending Albuquerque Center
01:28PM 33.4289 -112.1267 90° East 184 212 2,700 -720 Descending Albuquerque Center
01:29PM 33.4231 -112.0678 97° East 151 174 1,800 -780 Descending Albuquerque Center
01:30PM 33.4289 -112.0181 82° East 152 175 1,100 -720 Descending Albuquerque Center